sensor_id;sensor_type;location;lat;lon;timestamp;P1;durP1;ratioP1;P2;durP2;ratioP2
76640;SDS011;65538;50.798;6.064;2023-07-28T00:01:08;3.78;;;1.60;;
76640;SDS011;65538;50.798;6.064;2023-07-28T00:03:34;4.13;;;1.63;;
76640;SDS011;65538;50.798;6.064;2023-07-28T00:05:59;5.03;;;1.70;;
76640;SDS011;65538;50.798;6.064;2023-07-28T00:08:24;2.83;;;1.63;;
76640;SDS011;65538;50.798;6.064;2023-07-28T00:10:49;2.97;;;1.73;;
76640;SDS011;65538;50.798;6.064;2023-07-28T00:13:15;3.60;;;1.80;;
76640;SDS011;65538;50.798;6.064;2023-07-28T00:15:40;3.70;;;2.13;;
76640;SDS011;65538;50.798;6.064;2023-07-28T00:18:05;2.57;;;1.70;;
76640;SDS011;65538;50.798;6.064;2023-07-28T00:20:30;3.30;;;2.00;;
76640;SDS011;65538;50.798;6.064;2023-07-28T00:22:55;3.60;;;1.63;;
76640;SDS011;65538;50.798;6.064;2023-07-28T00:25:20;3.17;;;1.90;;
76640;SDS011;65538;50.798;6.064;2023-07-28T00:27:47;3.95;;;2.50;;
76640;SDS011;65538;50.798;6.064;2023-07-28T00:30:12;2.87;;;1.90;;
76640;SDS011;65538;50.798;6.064;2023-07-28T00:32:37;4.50;;;2.40;;
76640;SDS011;65538;50.798;6.064;2023-07-28T00:35:03;4.00;;;2.30;;
76640;SDS011;65538;50.798;6.064;2023-07-28T00:37:28;4.35;;;2.55;;
76640;SDS011;65538;50.798;6.064;2023-07-28T00:39:53;3.50;;;2.38;;
76640;SDS011;65538;50.798;6.064;2023-07-28T00:42:18;5.70;;;2.50;;
76640;SDS011;65538;50.798;6.064;2023-07-28T00:44:44;4.70;;;2.73;;
76640;SDS011;65538;50.798;6.064;2023-07-28T00:47:09;3.87;;;2.43;;
76640;SDS011;65538;50.798;6.064;2023-07-28T00:49:34;6.93;;;2.60;;
76640;SDS011;65538;50.798;6.064;2023-07-28T00:51:59;4.10;;;1.57;;
76640;SDS011;65538;50.798;6.064;2023-07-28T00:54:25;5.23;;;2.10;;
76640;SDS011;65538;50.798;6.064;2023-07-28T00:56:50;3.73;;;1.80;;
76640;SDS011;65538;50.798;6.064;2023-07-28T00:59:16;3.35;;;1.88;;
76640;SDS011;65538;50.798;6.064;2023-07-28T01:01:41;3.22;;;1.77;;
76640;SDS011;65538;50.798;6.064;2023-07-28T01:04:06;3.47;;;2.10;;
76640;SDS011;65538;50.798;6.064;2023-07-28T01:06:42;4.07;;;2.03;;
76640;SDS011;65538;50.798;6.064;2023-07-28T01:09:13;6.63;;;2.65;;
76640;SDS011;65538;50.798;6.064;2023-07-28T01:11:56;3.65;;;2.38;;
76640;SDS011;65538;50.798;6.064;2023-07-28T01:14:21;3.65;;;2.17;;
76640;SDS011;65538;50.798;6.064;2023-07-28T01:16:46;6.17;;;2.10;;
76640;SDS011;65538;50.798;6.064;2023-07-28T01:19:12;6.53;;;1.97;;
76640;SDS011;65538;50.798;6.064;2023-07-28T01:21:37;4.70;;;2.17;;
76640;SDS011;65538;50.798;6.064;2023-07-28T01:26:35;4.47;;;2.17;;
76640;SDS011;65538;50.798;6.064;2023-07-28T01:29:01;5.13;;;2.60;;
76640;SDS011;65538;50.798;6.064;2023-07-28T01:31:27;5.40;;;2.50;;
76640;SDS011;65538;50.798;6.064;2023-07-28T01:33:52;5.30;;;2.70;;
76640;SDS011;65538;50.798;6.064;2023-07-28T01:36:17;5.13;;;2.77;;
76640;SDS011;65538;50.798;6.064;2023-07-28T01:38:42;4.90;;;2.97;;
76640;SDS011;65538;50.798;6.064;2023-07-28T01:41:07;4.83;;;2.80;;
76640;SDS011;65538;50.798;6.064;2023-07-28T01:43:33;6.10;;;3.20;;
76640;SDS011;65538;50.798;6.064;2023-07-28T01:45:58;5.10;;;3.17;;
76640;SDS011;65538;50.798;6.064;2023-07-28T01:48:23;6.67;;;3.00;;
76640;SDS011;65538;50.798;6.064;2023-07-28T01:50:48;5.90;;;3.00;;
76640;SDS011;65538;50.798;6.064;2023-07-28T01:53:13;5.60;;;3.20;;
76640;SDS011;65538;50.798;6.064;2023-07-28T01:55:39;5.87;;;3.90;;
76640;SDS011;65538;50.798;6.064;2023-07-28T01:58:04;6.83;;;2.70;;
76640;SDS011;65538;50.798;6.064;2023-07-28T02:00:29;7.03;;;3.50;;
76640;SDS011;65538;50.798;6.064;2023-07-28T02:02:54;5.80;;;3.50;;
76640;SDS011;65538;50.798;6.064;2023-07-28T02:05:20;11.90;;;3.60;;
76640;SDS011;65538;50.798;6.064;2023-07-28T02:07:45;8.80;;;2.80;;
76640;SDS011;65538;50.798;6.064;2023-07-28T02:10:10;6.80;;;3.40;;
76640;SDS011;65538;50.798;6.064;2023-07-28T02:12:36;5.93;;;3.37;;
76640;SDS011;65538;50.798;6.064;2023-07-28T02:15:01;5.18;;;3.28;;
76640;SDS011;65538;50.798;6.064;2023-07-28T02:17:27;5.50;;;2.97;;
76640;SDS011;65538;50.798;6.064;2023-07-28T02:19:52;5.43;;;3.23;;
76640;SDS011;65538;50.798;6.064;2023-07-28T02:22:17;7.27;;;4.53;;
76640;SDS011;65538;50.798;6.064;2023-07-28T02:24:42;8.27;;;3.30;;
76640;SDS011;65538;50.798;6.064;2023-07-28T02:27:07;5.63;;;3.33;;
76640;SDS011;65538;50.798;6.064;2023-07-28T02:29:33;7.13;;;3.73;;
76640;SDS011;65538;50.798;6.064;2023-07-28T02:31:58;8.70;;;3.67;;
76640;SDS011;65538;50.798;6.064;2023-07-28T02:34:23;8.30;;;3.53;;
76640;SDS011;65538;50.798;6.064;2023-07-28T02:36:48;6.53;;;3.73;;
76640;SDS011;65538;50.798;6.064;2023-07-28T02:39:13;7.27;;;3.43;;
76640;SDS011;65538;50.798;6.064;2023-07-28T02:41:39;6.50;;;3.20;;
76640;SDS011;65538;50.798;6.064;2023-07-28T02:44:04;5.77;;;2.90;;
76640;SDS011;65538;50.798;6.064;2023-07-28T02:46:29;5.00;;;2.40;;
76640;SDS011;65538;50.798;6.064;2023-07-28T02:48:54;7.33;;;3.70;;
76640;SDS011;65538;50.798;6.064;2023-07-28T02:51:20;7.67;;;2.73;;
76640;SDS011;65538;50.798;6.064;2023-07-28T02:53:45;4.87;;;3.00;;
76640;SDS011;65538;50.798;6.064;2023-07-28T02:56:10;4.67;;;2.60;;
76640;SDS011;65538;50.798;6.064;2023-07-28T02:58:35;4.32;;;2.50;;
76640;SDS011;65538;50.798;6.064;2023-07-28T03:01:01;4.17;;;2.23;;
76640;SDS011;65538;50.798;6.064;2023-07-28T03:03:26;5.00;;;2.90;;
76640;SDS011;65538;50.798;6.064;2023-07-28T03:05:51;4.70;;;2.33;;
76640;SDS011;65538;50.798;6.064;2023-07-28T03:08:17;9.82;;;3.05;;
76640;SDS011;65538;50.798;6.064;2023-07-28T03:10:43;5.83;;;2.13;;
76640;SDS011;65538;50.798;6.064;2023-07-28T03:13:08;5.93;;;2.77;;
76640;SDS011;65538;50.798;6.064;2023-07-28T03:15:33;3.77;;;1.77;;
76640;SDS011;65538;50.798;6.064;2023-07-28T03:17:58;4.23;;;2.20;;
76640;SDS011;65538;50.798;6.064;2023-07-28T03:20:23;2.83;;;1.43;;
76640;SDS011;65538;50.798;6.064;2023-07-28T03:22:49;4.75;;;2.72;;
76640;SDS011;65538;50.798;6.064;2023-07-28T03:25:14;2.60;;;1.33;;
76640;SDS011;65538;50.798;6.064;2023-07-28T03:27:40;4.70;;;1.87;;
76640;SDS011;65538;50.798;6.064;2023-07-28T03:30:05;4.33;;;1.93;;
76640;SDS011;65538;50.798;6.064;2023-07-28T03:32:35;3.55;;;1.77;;
76640;SDS011;65538;50.798;6.064;2023-07-28T03:35:00;3.08;;;1.80;;
76640;SDS011;65538;50.798;6.064;2023-07-28T03:37:26;5.63;;;1.83;;
76640;SDS011;65538;50.798;6.064;2023-07-28T03:39:51;2.93;;;1.70;;
76640;SDS011;65538;50.798;6.064;2023-07-28T03:42:16;3.40;;;1.70;;
76640;SDS011;65538;50.798;6.064;2023-07-28T03:44:41;4.50;;;2.10;;
76640;SDS011;65538;50.798;6.064;2023-07-28T03:47:07;4.50;;;1.57;;
76640;SDS011;65538;50.798;6.064;2023-07-28T03:49:32;3.10;;;1.67;;
76640;SDS011;65538;50.798;6.064;2023-07-28T03:51:57;4.73;;;1.70;;
76640;SDS011;65538;50.798;6.064;2023-07-28T03:54:23;3.20;;;1.63;;
76640;SDS011;65538;50.798;6.064;2023-07-28T03:56:48;5.03;;;1.70;;
76640;SDS011;65538;50.798;6.064;2023-07-28T03:59:13;3.27;;;1.50;;
76640;SDS011;65538;50.798;6.064;2023-07-28T04:01:38;3.90;;;1.40;;
76640;SDS011;65538;50.798;6.064;2023-07-28T04:04:03;3.13;;;1.50;;
76640;SDS011;65538;50.798;6.064;2023-07-28T04:06:45;2.85;;;1.45;;
76640;SDS011;65538;50.798;6.064;2023-07-28T04:09:12;4.57;;;1.73;;
76640;SDS011;65538;50.798;6.064;2023-07-28T04:11:37;3.40;;;1.55;;
76640;SDS011;65538;50.798;6.064;2023-07-28T04:14:02;3.20;;;1.17;;
76640;SDS011;65538;50.798;6.064;2023-07-28T04:16:28;2.58;;;1.25;;
76640;SDS011;65538;50.798;6.064;2023-07-28T04:18:53;4.77;;;1.37;;
76640;SDS011;65538;50.798;6.064;2023-07-28T04:21:18;5.53;;;1.90;;
76640;SDS011;65538;50.798;6.064;2023-07-28T04:23:43;2.40;;;1.10;;
76640;SDS011;65538;50.798;6.064;2023-07-28T04:26:09;3.67;;;1.33;;
76640;SDS011;65538;50.798;6.064;2023-07-28T04:28:34;2.30;;;1.20;;
76640;SDS011;65538;50.798;6.064;2023-07-28T04:30:59;3.43;;;1.37;;
76640;SDS011;65538;50.798;6.064;2023-07-28T04:33:24;2.87;;;1.60;;
76640;SDS011;65538;50.798;6.064;2023-07-28T04:35:50;2.40;;;1.00;;
76640;SDS011;65538;50.798;6.064;2023-07-28T04:38:15;3.75;;;1.60;;
76640;SDS011;65538;50.798;6.064;2023-07-28T04:40:40;4.13;;;1.98;;
76640;SDS011;65538;50.798;6.064;2023-07-28T04:43:06;5.07;;;2.27;;
76640;SDS011;65538;50.798;6.064;2023-07-28T04:45:31;4.40;;;1.90;;
76640;SDS011;65538;50.798;6.064;2023-07-28T04:47:56;5.43;;;2.07;;
76640;SDS011;65538;50.798;6.064;2023-07-28T04:50:21;6.17;;;2.37;;
76640;SDS011;65538;50.798;6.064;2023-07-28T04:52:46;5.07;;;2.60;;
76640;SDS011;65538;50.798;6.064;2023-07-28T04:55:11;5.50;;;2.47;;
76640;SDS011;65538;50.798;6.064;2023-07-28T04:57:37;3.37;;;1.83;;
76640;SDS011;65538;50.798;6.064;2023-07-28T05:00:02;7.53;;;2.58;;
76640;SDS011;65538;50.798;6.064;2023-07-28T05:02:28;6.35;;;2.25;;
76640;SDS011;65538;50.798;6.064;2023-07-28T05:04:54;4.67;;;2.50;;
76640;SDS011;65538;50.798;6.064;2023-07-28T05:07:19;5.13;;;2.90;;
76640;SDS011;65538;50.798;6.064;2023-07-28T05:09:45;6.05;;;3.50;;
76640;SDS011;65538;50.798;6.064;2023-07-28T05:12:10;6.70;;;2.93;;
76640;SDS011;65538;50.798;6.064;2023-07-28T05:14:35;6.17;;;3.57;;
76640;SDS011;65538;50.798;6.064;2023-07-28T05:17:01;12.00;;;4.00;;
76640;SDS011;65538;50.798;6.064;2023-07-28T05:19:26;11.20;;;3.80;;
76640;SDS011;65538;50.798;6.064;2023-07-28T05:21:51;8.73;;;4.60;;
76640;SDS011;65538;50.798;6.064;2023-07-28T05:24:16;7.93;;;4.10;;
76640;SDS011;65538;50.798;6.064;2023-07-28T05:26:42;11.10;;;4.97;;
76640;SDS011;65538;50.798;6.064;2023-07-28T05:29:08;8.70;;;4.57;;
76640;SDS011;65538;50.798;6.064;2023-07-28T05:31:33;8.57;;;4.70;;
76640;SDS011;65538;50.798;6.064;2023-07-28T05:33:58;7.53;;;4.33;;
76640;SDS011;65538;50.798;6.064;2023-07-28T05:36:23;9.93;;;4.70;;
76640;SDS011;65538;50.798;6.064;2023-07-28T05:38:49;7.05;;;3.92;;
76640;SDS011;65538;50.798;6.064;2023-07-28T05:41:14;8.07;;;4.03;;
76640;SDS011;65538;50.798;6.064;2023-07-28T05:43:40;6.13;;;3.63;;
76640;SDS011;65538;50.798;6.064;2023-07-28T05:46:05;7.53;;;4.10;;
76640;SDS011;65538;50.798;6.064;2023-07-28T05:48:30;9.00;;;4.00;;
76640;SDS011;65538;50.798;6.064;2023-07-28T05:50:55;5.47;;;2.87;;
76640;SDS011;65538;50.798;6.064;2023-07-28T05:53:21;7.20;;;3.27;;
76640;SDS011;65538;50.798;6.064;2023-07-28T05:55:46;6.80;;;3.83;;
76640;SDS011;65538;50.798;6.064;2023-07-28T05:58:12;7.03;;;3.00;;
76640;SDS011;65538;50.798;6.064;2023-07-28T06:00:40;8.90;;;2.77;;
76640;SDS011;65538;50.798;6.064;2023-07-28T06:03:15;5.60;;;3.20;;
76640;SDS011;65538;50.798;6.064;2023-07-28T06:05:40;6.93;;;2.97;;
76640;SDS011;65538;50.798;6.064;2023-07-28T06:08:06;5.50;;;2.85;;
76640;SDS011;65538;50.798;6.064;2023-07-28T06:10:31;6.22;;;2.70;;
76640;SDS011;65538;50.798;6.064;2023-07-28T06:12:56;6.07;;;2.95;;
76640;SDS011;65538;50.798;6.064;2023-07-28T06:15:22;5.97;;;2.60;;
76640;SDS011;65538;50.798;6.064;2023-07-28T06:17:47;4.90;;;2.07;;
76640;SDS011;65538;50.798;6.064;2023-07-28T06:20:12;6.83;;;2.10;;
76640;SDS011;65538;50.798;6.064;2023-07-28T06:22:37;5.77;;;2.67;;
76640;SDS011;65538;50.798;6.064;2023-07-28T06:25:02;4.73;;;1.67;;
76640;SDS011;65538;50.798;6.064;2023-07-28T06:27:28;6.10;;;1.90;;
76640;SDS011;65538;50.798;6.064;2023-07-28T06:29:53;4.23;;;1.90;;
76640;SDS011;65538;50.798;6.064;2023-07-28T06:32:18;3.60;;;1.70;;
76640;SDS011;65538;50.798;6.064;2023-07-28T06:34:45;4.88;;;2.10;;
76640;SDS011;65538;50.798;6.064;2023-07-28T06:37:10;4.93;;;2.63;;
76640;SDS011;65538;50.798;6.064;2023-07-28T06:39:36;5.95;;;2.42;;
76640;SDS011;65538;50.798;6.064;2023-07-28T06:42:02;4.27;;;1.97;;
76640;SDS011;65538;50.798;6.064;2023-07-28T06:44:27;3.72;;;2.13;;
76640;SDS011;65538;50.798;6.064;2023-07-28T06:46:52;4.60;;;2.50;;
76640;SDS011;65538;50.798;6.064;2023-07-28T06:49:17;3.93;;;1.90;;
76640;SDS011;65538;50.798;6.064;2023-07-28T06:51:43;5.70;;;2.60;;
76640;SDS011;65538;50.798;6.064;2023-07-28T06:54:08;4.37;;;2.23;;
76640;SDS011;65538;50.798;6.064;2023-07-28T06:56:37;4.38;;;2.10;;
76640;SDS011;65538;50.798;6.064;2023-07-28T06:59:02;3.95;;;1.85;;
76640;SDS011;65538;50.798;6.064;2023-07-28T07:01:28;4.80;;;2.10;;
76640;SDS011;65538;50.798;6.064;2023-07-28T07:03:53;3.40;;;2.00;;
76640;SDS011;65538;50.798;6.064;2023-07-28T07:06:18;5.03;;;2.17;;
76640;SDS011;65538;50.798;6.064;2023-07-28T07:08:43;5.07;;;1.73;;
76640;SDS011;65538;50.798;6.064;2023-07-28T07:11:09;3.10;;;1.70;;
76640;SDS011;65538;50.798;6.064;2023-07-28T07:13:34;3.83;;;2.10;;
76640;SDS011;65538;50.798;6.064;2023-07-28T07:15:59;5.03;;;2.80;;
76640;SDS011;65538;50.798;6.064;2023-07-28T07:18:25;5.93;;;2.20;;
76640;SDS011;65538;50.798;6.064;2023-07-28T07:20:50;4.53;;;1.70;;
76640;SDS011;65538;50.798;6.064;2023-07-28T07:23:16;2.97;;;1.80;;
76640;SDS011;65538;50.798;6.064;2023-07-28T07:25:41;4.32;;;1.90;;
76640;SDS011;65538;50.798;6.064;2023-07-28T07:28:06;3.13;;;1.60;;
76640;SDS011;65538;50.798;6.064;2023-07-28T07:30:32;4.40;;;2.07;;
76640;SDS011;65538;50.798;6.064;2023-07-28T07:32:58;4.65;;;2.08;;
76640;SDS011;65538;50.798;6.064;2023-07-28T07:35:23;4.43;;;2.10;;
76640;SDS011;65538;50.798;6.064;2023-07-28T07:37:48;2.97;;;1.80;;
76640;SDS011;65538;50.798;6.064;2023-07-28T07:40:14;3.93;;;1.77;;
76640;SDS011;65538;50.798;6.064;2023-07-28T07:42:40;2.40;;;1.38;;
76640;SDS011;65538;50.798;6.064;2023-07-28T07:45:07;4.38;;;1.92;;
76640;SDS011;65538;50.798;6.064;2023-07-28T07:47:33;2.88;;;1.40;;
76640;SDS011;65538;50.798;6.064;2023-07-28T07:49:58;2.50;;;1.50;;
76640;SDS011;65538;50.798;6.064;2023-07-28T07:52:23;2.70;;;1.47;;
76640;SDS011;65538;50.798;6.064;2023-07-28T07:54:48;2.20;;;1.20;;
76640;SDS011;65538;50.798;6.064;2023-07-28T07:57:13;1.90;;;1.00;;
76640;SDS011;65538;50.798;6.064;2023-07-28T07:59:39;2.83;;;1.07;;
76640;SDS011;65538;50.798;6.064;2023-07-28T08:02:04;2.30;;;1.00;;
76640;SDS011;65538;50.798;6.064;2023-07-28T08:04:29;2.97;;;1.10;;
76640;SDS011;65538;50.798;6.064;2023-07-28T08:06:55;2.05;;;0.98;;
76640;SDS011;65538;50.798;6.064;2023-07-28T08:09:21;2.42;;;0.95;;
76640;SDS011;65538;50.798;6.064;2023-07-28T08:11:46;2.13;;;1.13;;
76640;SDS011;65538;50.798;6.064;2023-07-28T08:14:12;1.80;;;0.90;;
76640;SDS011;65538;50.798;6.064;2023-07-28T08:16:37;1.90;;;1.07;;
76640;SDS011;65538;50.798;6.064;2023-07-28T08:19:02;4.53;;;1.10;;
76640;SDS011;65538;50.798;6.064;2023-07-28T08:21:27;2.50;;;0.97;;
76640;SDS011;65538;50.798;6.064;2023-07-28T08:23:52;1.40;;;0.70;;
76640;SDS011;65538;50.798;6.064;2023-07-28T08:26:18;4.00;;;1.17;;
76640;SDS011;65538;50.798;6.064;2023-07-28T08:28:43;1.80;;;0.97;;
76640;SDS011;65538;50.798;6.064;2023-07-28T08:31:08;7.57;;;1.27;;
76640;SDS011;65538;50.798;6.064;2023-07-28T08:33:33;2.33;;;1.00;;
76640;SDS011;65538;50.798;6.064;2023-07-28T08:35:58;1.97;;;1.03;;
76640;SDS011;65538;50.798;6.064;2023-07-28T08:38:24;1.50;;;0.77;;
76640;SDS011;65538;50.798;6.064;2023-07-28T08:40:49;1.80;;;1.00;;
76640;SDS011;65538;50.798;6.064;2023-07-28T08:43:14;4.37;;;1.47;;
76640;SDS011;65538;50.798;6.064;2023-07-28T08:45:39;3.00;;;1.10;;
76640;SDS011;65538;50.798;6.064;2023-07-28T08:48:05;1.80;;;0.80;;
76640;SDS011;65538;50.798;6.064;2023-07-28T08:50:30;3.38;;;0.98;;
76640;SDS011;65538;50.798;6.064;2023-07-28T08:52:58;2.07;;;0.93;;
76640;SDS011;65538;50.798;6.064;2023-07-28T08:55:24;1.77;;;0.90;;
76640;SDS011;65538;50.798;6.064;2023-07-28T08:57:50;2.10;;;1.00;;
76640;SDS011;65538;50.798;6.064;2023-07-28T09:00:15;1.73;;;0.90;;
76640;SDS011;65538;50.798;6.064;2023-07-28T09:02:42;3.35;;;1.10;;
76640;SDS011;65538;50.798;6.064;2023-07-28T09:05:08;1.97;;;1.10;;
76640;SDS011;65538;50.798;6.064;2023-07-28T09:07:42;1.55;;;0.90;;
76640;SDS011;65538;50.798;6.064;2023-07-28T09:10:08;3.95;;;1.10;;
76640;SDS011;65538;50.798;6.064;2023-07-28T09:12:33;2.00;;;1.20;;
76640;SDS011;65538;50.798;6.064;2023-07-28T09:14:58;2.13;;;0.80;;
76640;SDS011;65538;50.798;6.064;2023-07-28T09:17:23;2.30;;;1.10;;
76640;SDS011;65538;50.798;6.064;2023-07-28T09:22:43;2.53;;;1.20;;
76640;SDS011;65538;50.798;6.064;2023-07-28T09:25:15;1.77;;;1.02;;
76640;SDS011;65538;50.798;6.064;2023-07-28T09:27:40;2.30;;;0.90;;
76640;SDS011;65538;50.798;6.064;2023-07-28T09:30:06;1.77;;;0.90;;
76640;SDS011;65538;50.798;6.064;2023-07-28T09:32:32;1.55;;;0.73;;
76640;SDS011;65538;50.798;6.064;2023-07-28T09:37:34;2.00;;;1.00;;
76640;SDS011;65538;50.798;6.064;2023-07-28T09:40:02;2.40;;;0.93;;
76640;SDS011;65538;50.798;6.064;2023-07-28T09:42:29;1.52;;;0.95;;
76640;SDS011;65538;50.798;6.064;2023-07-28T09:44:55;2.20;;;0.75;;
76640;SDS011;65538;50.798;6.064;2023-07-28T09:47:20;2.28;;;1.05;;
76640;SDS011;65538;50.798;6.064;2023-07-28T09:49:46;2.13;;;1.05;;
76640;SDS011;65538;50.798;6.064;2023-07-28T09:52:13;5.00;;;1.00;;
76640;SDS011;65538;50.798;6.064;2023-07-28T09:54:41;2.55;;;1.23;;
76640;SDS011;65538;50.798;6.064;2023-07-28T09:57:12;1.98;;;1.10;;
76640;SDS011;65538;50.798;6.064;2023-07-28T09:59:38;2.75;;;0.93;;
76640;SDS011;65538;50.798;6.064;2023-07-28T10:02:04;1.65;;;0.73;;
76640;SDS011;65538;50.798;6.064;2023-07-28T10:04:30;4.25;;;0.93;;
76640;SDS011;65538;50.798;6.064;2023-07-28T10:06:55;2.10;;;0.93;;
76640;SDS011;65538;50.798;6.064;2023-07-28T10:09:22;2.00;;;1.00;;
76640;SDS011;65538;50.798;6.064;2023-07-28T10:11:48;1.70;;;1.00;;
76640;SDS011;65538;50.798;6.064;2023-07-28T10:14:24;2.37;;;0.90;;
76640;SDS011;65538;50.798;6.064;2023-07-28T10:16:50;2.40;;;0.98;;
76640;SDS011;65538;50.798;6.064;2023-07-28T10:19:19;2.00;;;0.97;;
76640;SDS011;65538;50.798;6.064;2023-07-28T10:21:44;1.65;;;0.93;;
76640;SDS011;65538;50.798;6.064;2023-07-28T10:24:10;1.95;;;1.27;;
76640;SDS011;65538;50.798;6.064;2023-07-28T10:29:11;1.90;;;1.03;;
76640;SDS011;65538;50.798;6.064;2023-07-28T10:31:36;2.00;;;1.10;;
76640;SDS011;65538;50.798;6.064;2023-07-28T10:34:02;2.00;;;1.08;;
76640;SDS011;65538;50.798;6.064;2023-07-28T10:39:00;2.13;;;1.17;;
76640;SDS011;65538;50.798;6.064;2023-07-28T10:41:26;1.92;;;1.15;;
76640;SDS011;65538;50.798;6.064;2023-07-28T10:43:51;1.87;;;1.00;;
76640;SDS011;65538;50.798;6.064;2023-07-28T10:46:17;2.50;;;1.20;;
76640;SDS011;65538;50.798;6.064;2023-07-28T10:48:43;1.70;;;0.90;;
76640;SDS011;65538;50.798;6.064;2023-07-28T10:51:09;2.65;;;1.00;;
76640;SDS011;65538;50.798;6.064;2023-07-28T10:53:36;1.83;;;0.95;;
76640;SDS011;65538;50.798;6.064;2023-07-28T10:56:02;1.60;;;0.90;;
76640;SDS011;65538;50.798;6.064;2023-07-28T10:58:28;2.47;;;1.23;;
76640;SDS011;65538;50.798;6.064;2023-07-28T11:00:53;3.40;;;1.00;;
76640;SDS011;65538;50.798;6.064;2023-07-28T11:03:18;2.50;;;1.10;;
76640;SDS011;65538;50.798;6.064;2023-07-28T11:05:45;1.70;;;0.98;;
76640;SDS011;65538;50.798;6.064;2023-07-28T11:08:10;3.30;;;1.17;;
76640;SDS011;65538;50.798;6.064;2023-07-28T11:10:35;2.97;;;1.10;;
76640;SDS011;65538;50.798;6.064;2023-07-28T11:13:01;3.13;;;1.27;;
76640;SDS011;65538;50.798;6.064;2023-07-28T11:15:27;4.30;;;1.52;;
76640;SDS011;65538;50.798;6.064;2023-07-28T11:17:52;2.20;;;1.20;;
76640;SDS011;65538;50.798;6.064;2023-07-28T11:20:18;2.10;;;1.30;;
76640;SDS011;65538;50.798;6.064;2023-07-28T11:22:45;2.70;;;1.50;;
76640;SDS011;65538;50.798;6.064;2023-07-28T11:25:11;2.20;;;1.08;;
76640;SDS011;65538;50.798;6.064;2023-07-28T11:27:36;2.10;;;1.15;;
76640;SDS011;65538;50.798;6.064;2023-07-28T11:30:02;1.50;;;0.90;;
76640;SDS011;65538;50.798;6.064;2023-07-28T11:32:31;2.13;;;1.08;;
76640;SDS011;65538;50.798;6.064;2023-07-28T11:35:06;3.05;;;1.17;;
76640;SDS011;65538;50.798;6.064;2023-07-28T11:37:35;2.10;;;1.20;;
76640;SDS011;65538;50.798;6.064;2023-07-28T11:40:01;2.70;;;1.30;;
76640;SDS011;65538;50.798;6.064;2023-07-28T11:42:27;2.30;;;0.95;;
76640;SDS011;65538;50.798;6.064;2023-07-28T11:44:53;3.30;;;1.30;;
76640;SDS011;65538;50.798;6.064;2023-07-28T11:47:18;2.77;;;1.20;;
76640;SDS011;65538;50.798;6.064;2023-07-28T11:49:47;2.20;;;1.20;;
76640;SDS011;65538;50.798;6.064;2023-07-28T11:52:12;2.00;;;1.13;;
76640;SDS011;65538;50.798;6.064;2023-07-28T11:54:37;2.37;;;1.50;;
76640;SDS011;65538;50.798;6.064;2023-07-28T11:57:02;3.63;;;1.20;;
76640;SDS011;65538;50.798;6.064;2023-07-28T11:59:28;2.13;;;1.10;;
76640;SDS011;65538;50.798;6.064;2023-07-28T12:02:03;1.80;;;0.90;;
76640;SDS011;65538;50.798;6.064;2023-07-28T12:04:35;2.67;;;1.30;;
76640;SDS011;65538;50.798;6.064;2023-07-28T12:07:09;3.15;;;1.10;;
76640;SDS011;65538;50.798;6.064;2023-07-28T12:12:17;2.53;;;0.93;;
76640;SDS011;65538;50.798;6.064;2023-07-28T12:14:43;2.35;;;1.02;;
76640;SDS011;65538;50.798;6.064;2023-07-28T12:17:12;1.90;;;1.00;;
76640;SDS011;65538;50.798;6.064;2023-07-28T12:19:41;3.40;;;1.13;;
76640;SDS011;65538;50.798;6.064;2023-07-28T12:22:06;3.38;;;1.13;;
76640;SDS011;65538;50.798;6.064;2023-07-28T12:24:32;1.70;;;0.82;;
76640;SDS011;65538;50.798;6.064;2023-07-28T12:26:58;1.65;;;0.88;;
76640;SDS011;65538;50.798;6.064;2023-07-28T12:29:23;1.58;;;0.82;;
76640;SDS011;65538;50.798;6.064;2023-07-28T12:31:49;1.40;;;0.60;;
76640;SDS011;65538;50.798;6.064;2023-07-28T12:34:14;1.97;;;0.80;;
76640;SDS011;65538;50.798;6.064;2023-07-28T12:36:39;2.17;;;0.80;;
76640;SDS011;65538;50.798;6.064;2023-07-28T12:39:04;2.37;;;0.60;;
76640;SDS011;65538;50.798;6.064;2023-07-28T12:41:31;1.38;;;0.80;;
76640;SDS011;65538;50.798;6.064;2023-07-28T12:43:56;1.13;;;0.70;;
76640;SDS011;65538;50.798;6.064;2023-07-28T12:46:21;0.80;;;0.43;;
76640;SDS011;65538;50.798;6.064;2023-07-28T12:48:46;0.80;;;0.40;;
76640;SDS011;65538;50.798;6.064;2023-07-28T12:51:11;1.00;;;0.50;;
76640;SDS011;65538;50.798;6.064;2023-07-28T12:53:36;0.67;;;0.40;;
76640;SDS011;65538;50.798;6.064;2023-07-28T12:56:02;1.50;;;0.50;;
76640;SDS011;65538;50.798;6.064;2023-07-28T12:58:27;0.90;;;0.50;;
76640;SDS011;65538;50.798;6.064;2023-07-28T13:00:53;1.08;;;0.60;;
76640;SDS011;65538;50.798;6.064;2023-07-28T13:03:19;1.25;;;0.52;;
76640;SDS011;65538;50.798;6.064;2023-07-28T13:05:44;0.90;;;0.40;;
76640;SDS011;65538;50.798;6.064;2023-07-28T13:08:11;1.10;;;0.57;;
76640;SDS011;65538;50.798;6.064;2023-07-28T13:10:37;1.87;;;0.40;;
76640;SDS011;65538;50.798;6.064;2023-07-28T13:13:02;0.85;;;0.43;;
76640;SDS011;65538;50.798;6.064;2023-07-28T13:15:27;1.07;;;0.50;;
76640;SDS011;65538;50.798;6.064;2023-07-28T13:17:53;0.57;;;0.40;;
76640;SDS011;65538;50.798;6.064;2023-07-28T13:20:18;0.63;;;0.40;;
76640;SDS011;65538;50.798;6.064;2023-07-28T13:22:43;1.70;;;0.37;;
76640;SDS011;65538;50.798;6.064;2023-07-28T13:25:08;1.63;;;0.50;;
76640;SDS011;65538;50.798;6.064;2023-07-28T13:27:33;1.47;;;0.33;;
76640;SDS011;65538;50.798;6.064;2023-07-28T13:29:59;0.67;;;0.40;;
76640;SDS011;65538;50.798;6.064;2023-07-28T13:32:24;2.00;;;0.60;;
76640;SDS011;65538;50.798;6.064;2023-07-28T13:34:50;1.17;;;0.52;;
76640;SDS011;65538;50.798;6.064;2023-07-28T13:37:15;0.90;;;0.65;;
76640;SDS011;65538;50.798;6.064;2023-07-28T13:39:41;0.80;;;0.40;;
76640;SDS011;65538;50.798;6.064;2023-07-28T13:42:06;1.20;;;0.55;;
76640;SDS011;65538;50.798;6.064;2023-07-28T13:44:31;1.23;;;0.63;;
76640;SDS011;65538;50.798;6.064;2023-07-28T13:46:57;0.90;;;0.50;;
76640;SDS011;65538;50.798;6.064;2023-07-28T13:49:22;1.07;;;0.57;;
76640;SDS011;65538;50.798;6.064;2023-07-28T13:51:47;1.00;;;0.50;;
76640;SDS011;65538;50.798;6.064;2023-07-28T13:54:12;1.10;;;0.53;;
76640;SDS011;65538;50.798;6.064;2023-07-28T13:56:37;0.60;;;0.50;;
76640;SDS011;65538;50.798;6.064;2023-07-28T13:59:03;3.95;;;0.63;;
76640;SDS011;65538;50.798;6.064;2023-07-28T14:01:28;3.43;;;0.70;;
76640;SDS011;65538;50.798;6.064;2023-07-28T14:03:53;1.27;;;0.53;;
76640;SDS011;65538;50.798;6.064;2023-07-28T14:06:19;0.90;;;0.50;;
76640;SDS011;65538;50.798;6.064;2023-07-28T14:08:44;1.08;;;0.60;;
76640;SDS011;65538;50.798;6.064;2023-07-28T14:11:10;1.25;;;0.63;;
76640;SDS011;65538;50.798;6.064;2023-07-28T14:13:36;1.00;;;0.50;;
76640;SDS011;65538;50.798;6.064;2023-07-28T14:16:01;1.00;;;0.50;;
76640;SDS011;65538;50.798;6.064;2023-07-28T14:18:26;1.50;;;0.60;;
76640;SDS011;65538;50.798;6.064;2023-07-28T14:20:52;1.43;;;0.77;;
76640;SDS011;65538;50.798;6.064;2023-07-28T14:23:21;2.20;;;0.90;;
76640;SDS011;65538;50.798;6.064;2023-07-28T14:25:46;1.50;;;0.63;;
76640;SDS011;65538;50.798;6.064;2023-07-28T14:28:12;1.33;;;0.73;;
76640;SDS011;65538;50.798;6.064;2023-07-28T14:30:37;2.50;;;0.80;;
76640;SDS011;65538;50.798;6.064;2023-07-28T14:33:02;1.63;;;0.83;;
76640;SDS011;65538;50.798;6.064;2023-07-28T14:35:27;1.67;;;0.70;;
76640;SDS011;65538;50.798;6.064;2023-07-28T14:37:53;1.80;;;0.85;;
76640;SDS011;65538;50.798;6.064;2023-07-28T14:40:18;1.83;;;0.80;;
76640;SDS011;65538;50.798;6.064;2023-07-28T14:42:43;1.70;;;1.00;;
76640;SDS011;65538;50.798;6.064;2023-07-28T14:45:09;2.53;;;1.10;;
76640;SDS011;65538;50.798;6.064;2023-07-28T14:47:34;2.03;;;0.90;;
76640;SDS011;65538;50.798;6.064;2023-07-28T14:49:59;3.73;;;1.10;;
76640;SDS011;65538;50.798;6.064;2023-07-28T14:52:24;2.20;;;1.03;;
76640;SDS011;65538;50.798;6.064;2023-07-28T14:54:50;2.37;;;1.10;;